sensor_id;sensor_type;location;lat;lon;timestamp;pressure;altitude;pressure_sealevel;temperature;humidity
28312;BME280;15572;48.810;9.148;2023-11-21T00:00:48;97521.16;;;7.85;100.00
28312;BME280;15572;48.810;9.148;2023-11-21T00:05:44;97513.88;;;7.85;100.00
28312;BME280;15572;48.810;9.148;2023-11-21T00:10:41;97507.22;;;7.81;100.00
28312;BME280;15572;48.810;9.148;2023-11-21T00:15:37;97505.78;;;7.85;100.00
28312;BME280;15572;48.810;9.148;2023-11-21T00:20:35;97500.03;;;7.88;100.00
28312;BME280;15572;48.810;9.148;2023-11-21T00:25:31;97493.81;;;7.88;100.00
28312;BME280;15572;48.810;9.148;2023-11-21T00:30:28;97484.88;;;7.87;100.00
28312;BME280;15572;48.810;9.148;2023-11-21T00:35:26;97491.09;;;7.88;100.00
28312;BME280;15572;48.810;9.148;2023-11-21T00:40:23;97494.66;;;7.88;100.00
28312;BME280;15572;48.810;9.148;2023-11-21T00:45:20;97489.25;;;7.88;100.00
28312;BME280;15572;48.810;9.148;2023-11-21T00:50:16;97495.28;;;7.90;100.00
28312;BME280;15572;48.810;9.148;2023-11-21T00:55:13;97498.59;;;7.92;100.00
28312;BME280;15572;48.810;9.148;2023-11-21T01:00:12;97506.09;;;7.97;100.00
28312;BME280;15572;48.810;9.148;2023-11-21T01:05:12;97493.84;;;7.94;100.00
28312;BME280;15572;48.810;9.148;2023-11-21T01:10:09;97493.91;;;8.01;100.00
28312;BME280;15572;48.810;9.148;2023-11-21T01:15:07;97499.50;;;7.99;100.00
28312;BME280;15572;48.810;9.148;2023-11-21T01:20:06;97500.94;;;8.02;100.00
28312;BME280;15572;48.810;9.148;2023-11-21T01:25:07;97498.66;;;7.99;100.00
28312;BME280;15572;48.810;9.148;2023-11-21T01:30:04;97490.75;;;7.97;100.00
28312;BME280;15572;48.810;9.148;2023-11-21T01:35:04;97495.56;;;8.02;100.00
28312;BME280;15572;48.810;9.148;2023-11-21T01:40:02;97491.22;;;8.01;100.00
28312;BME280;15572;48.810;9.148;2023-11-21T01:45:01;97492.84;;;8.02;100.00
28312;BME280;15572;48.810;9.148;2023-11-21T01:50:00;97490.81;;;8.04;100.00
28312;BME280;15572;48.810;9.148;2023-11-21T01:54:59;97479.00;;;8.05;100.00
28312;BME280;15572;48.810;9.148;2023-11-21T01:59:58;97478.59;;;8.08;100.00
28312;BME280;15572;48.810;9.148;2023-11-21T02:04:55;97486.69;;;8.08;100.00
28312;BME280;15572;48.810;9.148;2023-11-21T02:09:51;97490.03;;;8.10;100.00
28312;BME280;15572;48.810;9.148;2023-11-21T02:14:49;97491.47;;;8.13;100.00
28312;BME280;15572;48.810;9.148;2023-11-21T02:19:46;97489.63;;;8.13;100.00
28312;BME280;15572;48.810;9.148;2023-11-21T02:24:47;97482.56;;;8.12;100.00
28312;BME280;15572;48.810;9.148;2023-11-21T02:29:44;97484.22;;;8.13;100.00
28312;BME280;15572;48.810;9.148;2023-11-21T02:34:40;97481.94;;;8.10;100.00
28312;BME280;15572;48.810;9.148;2023-11-21T02:39:38;97484.41;;;8.05;100.00
28312;BME280;15572;48.810;9.148;2023-11-21T02:44:36;97477.34;;;8.04;100.00
28312;BME280;15572;48.810;9.148;2023-11-21T02:49:32;97475.28;;;8.06;100.00
28312;BME280;15572;48.810;9.148;2023-11-21T02:54:32;97470.28;;;8.03;100.00
28312;BME280;15572;48.810;9.148;2023-11-21T02:59:31;97473.16;;;8.01;100.00
28312;BME280;15572;48.810;9.148;2023-11-21T03:04:29;97477.28;;;7.97;100.00
28312;BME280;15572;48.810;9.148;2023-11-21T03:09:27;97470.22;;;7.96;100.00
28312;BME280;15572;48.810;9.148;2023-11-21T03:14:24;97479.53;;;7.94;100.00
28312;BME280;15572;48.810;9.148;2023-11-21T03:19:20;97474.09;;;7.87;100.00
28312;BME280;15572;48.810;9.148;2023-11-21T03:24:18;97483.22;;;7.86;100.00
28312;BME280;15572;48.810;9.148;2023-11-21T03:29:14;97480.34;;;7.88;100.00
28312;BME280;15572;48.810;9.148;2023-11-21T03:34:15;97490.31;;;7.94;100.00
28312;BME280;15572;48.810;9.148;2023-11-21T03:39:12;97485.56;;;7.96;100.00
28312;BME280;15572;48.810;9.148;2023-11-21T03:44:10;97486.19;;;7.98;100.00
28312;BME280;15572;48.810;9.148;2023-11-21T03:49:06;97489.91;;;7.97;100.00
28312;BME280;15572;48.810;9.148;2023-11-21T03:54:03;97495.97;;;7.99;100.00
28312;BME280;15572;48.810;9.148;2023-11-21T03:59:00;97502.00;;;8.01;100.00
28312;BME280;15572;48.810;9.148;2023-11-21T04:03:57;97494.28;;;7.98;100.00
28312;BME280;15572;48.810;9.148;2023-11-21T04:08:54;97492.84;;;7.95;100.00
28312;BME280;15572;48.810;9.148;2023-11-21T04:13:50;97495.91;;;7.92;100.00
28312;BME280;15572;48.810;9.148;2023-11-21T04:18:47;97494.81;;;7.87;100.00
28312;BME280;15572;48.810;9.148;2023-11-21T04:23:44;97501.84;;;7.81;100.00
28312;BME280;15572;48.810;9.148;2023-11-21T04:28:41;97495.00;;;7.79;100.00
28312;BME280;15572;48.810;9.148;2023-11-21T04:33:38;97492.81;;;7.68;100.00
28312;BME280;15572;48.810;9.148;2023-11-21T04:38:34;97504.19;;;7.63;100.00
28312;BME280;15572;48.810;9.148;2023-11-21T04:43:32;97504.19;;;7.63;100.00
28312;BME280;15572;48.810;9.148;2023-11-21T04:48:28;97506.25;;;7.61;100.00
28312;BME280;15572;48.810;9.148;2023-11-21T04:53:25;97518.25;;;7.58;100.00
28312;BME280;15572;48.810;9.148;2023-11-21T04:58:21;97511.19;;;7.57;100.00
28312;BME280;15572;48.810;9.148;2023-11-21T05:03:19;97521.50;;;7.54;100.00
28312;BME280;15572;48.810;9.148;2023-11-21T05:08:15;97520.03;;;7.51;100.00
28312;BME280;15572;48.810;9.148;2023-11-21T05:13:12;97518.38;;;7.50;100.00
28312;BME280;15572;48.810;9.148;2023-11-21T05:18:09;97524.19;;;7.54;100.00
28312;BME280;15572;48.810;9.148;2023-11-21T05:23:07;97525.69;;;7.56;100.00
28312;BME280;15572;48.810;9.148;2023-11-21T05:28:03;97530.47;;;7.61;100.00
28312;BME280;15572;48.810;9.148;2023-11-21T05:33:01;97548.13;;;7.64;100.00
28312;BME280;15572;48.810;9.148;2023-11-21T05:37:58;97545.38;;;7.57;100.00
28312;BME280;15572;48.810;9.148;2023-11-21T05:42:56;97547.59;;;7.53;100.00
28312;BME280;15572;48.810;9.148;2023-11-21T05:47:52;97554.28;;;7.57;100.00
28312;BME280;15572;48.810;9.148;2023-11-21T05:52:49;97558.00;;;7.56;100.00
28312;BME280;15572;48.810;9.148;2023-11-21T05:57:45;97557.81;;;7.58;100.00
28312;BME280;15572;48.810;9.148;2023-11-21T06:02:43;97556.31;;;7.55;100.00
28312;BME280;15572;48.810;9.148;2023-11-21T06:07:40;97567.69;;;7.51;100.00
28312;BME280;15572;48.810;9.148;2023-11-21T06:12:36;97569.72;;;7.49;100.00
28312;BME280;15572;48.810;9.148;2023-11-21T06:17:33;97577.81;;;7.49;100.00
28312;BME280;15572;48.810;9.148;2023-11-21T06:22:32;97585.03;;;7.48;100.00
28312;BME280;15572;48.810;9.148;2023-11-21T06:27:29;97587.56;;;7.50;100.00
28312;BME280;15572;48.810;9.148;2023-11-21T06:32:25;97587.75;;;7.48;100.00
28312;BME280;15572;48.810;9.148;2023-11-21T06:37:24;97594.44;;;7.52;100.00
28312;BME280;15572;48.810;9.148;2023-11-21T06:42:22;97612.44;;;7.52;100.00
28312;BME280;15572;48.810;9.148;2023-11-21T06:47:19;97607.25;;;7.50;100.00
28312;BME280;15572;48.810;9.148;2023-11-21T06:52:16;97613.16;;;7.60;100.00
28312;BME280;15572;48.810;9.148;2023-11-21T06:57:13;97612.78;;;7.64;100.00
28312;BME280;15572;48.810;9.148;2023-11-21T07:02:11;97623.59;;;7.70;100.00
28312;BME280;15572;48.810;9.148;2023-11-21T07:07:07;97625.28;;;7.71;100.00
28312;BME280;15572;48.810;9.148;2023-11-21T07:12:04;97635.69;;;7.74;100.00
28312;BME280;15572;48.810;9.148;2023-11-21T07:17:02;97632.59;;;7.77;100.00
28312;BME280;15572;48.810;9.148;2023-11-21T07:22:00;97632.19;;;7.80;100.00
28312;BME280;15572;48.810;9.148;2023-11-21T07:26:57;97643.44;;;7.84;100.00
28312;BME280;15572;48.810;9.148;2023-11-21T07:31:53;97648.06;;;7.90;100.00
28312;BME280;15572;48.810;9.148;2023-11-21T07:36:50;97653.91;;;7.93;100.00
28312;BME280;15572;48.810;9.148;2023-11-21T07:41:48;97667.19;;;7.95;100.00
28312;BME280;15572;48.810;9.148;2023-11-21T07:46:45;97667.06;;;8.03;100.00
28312;BME280;15572;48.810;9.148;2023-11-21T07:51:41;97666.03;;;8.04;100.00
28312;BME280;15572;48.810;9.148;2023-11-21T07:56:38;97668.97;;;8.09;100.00
28312;BME280;15572;48.810;9.148;2023-11-21T08:01:36;97676.38;;;8.22;100.00
28312;BME280;15572;48.810;9.148;2023-11-21T08:06:32;97678.94;;;8.30;100.00
28312;BME280;15572;48.810;9.148;2023-11-21T08:11:29;97691.72;;;8.42;100.00
28312;BME280;15572;48.810;9.148;2023-11-21T08:16:27;97686.66;;;8.61;100.00
28312;BME280;15572;48.810;9.148;2023-11-21T08:21:25;97688.81;;;8.72;100.00
28312;BME280;15572;48.810;9.148;2023-11-21T08:26:22;97690.13;;;8.82;100.00
28312;BME280;15572;48.810;9.148;2023-11-21T08:31:23;97703.09;;;8.94;100.00
28312;BME280;15572;48.810;9.148;2023-11-21T08:36:20;97693.63;;;9.11;100.00
28312;BME280;15572;48.810;9.148;2023-11-21T08:41:19;97708.25;;;9.23;100.00
28312;BME280;15572;48.810;9.148;2023-11-21T08:46:16;97704.38;;;9.39;100.00
28312;BME280;15572;48.810;9.148;2023-11-21T08:51:13;97709.84;;;9.52;100.00
28312;BME280;15572;48.810;9.148;2023-11-21T08:56:12;97713.56;;;9.44;100.00
28312;BME280;15572;48.810;9.148;2023-11-21T09:01:10;97719.94;;;9.37;100.00
28312;BME280;15572;48.810;9.148;2023-11-21T09:06:07;97724.31;;;9.38;100.00
28312;BME280;15572;48.810;9.148;2023-11-21T09:11:05;97724.81;;;9.54;100.00
28312;BME280;15572;48.810;9.148;2023-11-21T09:16:03;97720.72;;;9.65;100.00
28312;BME280;15572;48.810;9.148;2023-11-21T09:21:02;97731.09;;;9.68;100.00
28312;BME280;15572;48.810;9.148;2023-11-21T09:25:59;97738.81;;;9.71;100.00
28312;BME280;15572;48.810;9.148;2023-11-21T09:30:56;97746.72;;;9.66;100.00
28312;BME280;15572;48.810;9.148;2023-11-21T09:35:52;97752.47;;;9.50;100.00
28312;BME280;15572;48.810;9.148;2023-11-21T09:40:50;97748.63;;;9.38;100.00
28312;BME280;15572;48.810;9.148;2023-11-21T09:45:55;97755.88;;;9.30;100.00
28312;BME280;15572;48.810;9.148;2023-11-21T09:50:53;97747.94;;;9.22;100.00
28312;BME280;15572;48.810;9.148;2023-11-21T09:55:52;97753.09;;;9.17;100.00
28312;BME280;15572;48.810;9.148;2023-11-21T10:00:53;97761.78;;;9.13;100.00
28312;BME280;15572;48.810;9.148;2023-11-21T10:05:50;97769.00;;;9.06;100.00
28312;BME280;15572;48.810;9.148;2023-11-21T10:10:52;97772.06;;;8.96;100.00
28312;BME280;15572;48.810;9.148;2023-11-21T10:15:51;97768.22;;;8.84;100.00
28312;BME280;15572;48.810;9.148;2023-11-21T10:20:48;97772.72;;;8.77;100.00
28312;BME280;15572;48.810;9.148;2023-11-21T10:25:47;97774.81;;;8.75;100.00
28312;BME280;15572;48.810;9.148;2023-11-21T10:30:46;97773.50;;;8.71;100.00
28312;BME280;15572;48.810;9.148;2023-11-21T10:35:43;97784.28;;;8.71;100.00
28312;BME280;15572;48.810;9.148;2023-11-21T10:40:44;97777.69;;;8.73;100.00
28312;BME280;15572;48.810;9.148;2023-11-21T10:45:42;97779.22;;;8.82;100.00
28312;BME280;15572;48.810;9.148;2023-11-21T10:50:40;97781.00;;;8.97;100.00
28312;BME280;15572;48.810;9.148;2023-11-21T10:55:37;97784.25;;;9.20;100.00
28312;BME280;15572;48.810;9.148;2023-11-21T11:00:33;97779.56;;;9.28;100.00
28312;BME280;15572;48.810;9.148;2023-11-21T11:05:30;97776.41;;;9.25;100.00
28312;BME280;15572;48.810;9.148;2023-11-21T11:10:29;97785.81;;;9.36;100.00
28312;BME280;15572;48.810;9.148;2023-11-21T11:15:26;97780.97;;;9.24;100.00
28312;BME280;15572;48.810;9.148;2023-11-21T11:20:24;97778.50;;;9.29;100.00
28312;BME280;15572;48.810;9.148;2023-11-21T11:25:33;97782.50;;;9.34;100.00
28312;BME280;15572;48.810;9.148;2023-11-21T11:30:41;97789.06;;;9.59;100.00
28312;BME280;15572;48.810;9.148;2023-11-21T11:35:48;97783.19;;;9.49;100.00
28312;BME280;15572;48.810;9.148;2023-11-21T11:40:52;97782.44;;;9.61;100.00
28312;BME280;15572;48.810;9.148;2023-11-21T11:45:49;97788.56;;;9.83;100.00
28312;BME280;15572;48.810;9.148;2023-11-21T11:51:13;97790.47;;;9.89;100.00
28312;BME280;15572;48.810;9.148;2023-11-21T11:56:27;97787.75;;;9.83;100.00
28312;BME280;15572;48.810;9.148;2023-11-21T12:01:26;97788.78;;;9.82;100.00
28312;BME280;15572;48.810;9.148;2023-11-21T12:06:32;97790.22;;;9.84;100.00
28312;BME280;15572;48.810;9.148;2023-11-21T12:11:31;97793.72;;;9.78;100.00
28312;BME280;15572;48.810;9.148;2023-11-21T12:16:32;97788.91;;;9.67;100.00
28312;BME280;15572;48.810;9.148;2023-11-21T12:21:29;97802.88;;;9.70;100.00
28312;BME280;15572;48.810;9.148;2023-11-21T12:26:27;97796.00;;;9.75;100.00
28312;BME280;15572;48.810;9.148;2023-11-21T12:31:25;97807.44;;;9.70;100.00
28312;BME280;15572;48.810;9.148;2023-11-21T12:36:21;97809.22;;;9.56;100.00
28312;BME280;15572;48.810;9.148;2023-11-21T12:41:18;97811.00;;;9.43;100.00
28312;BME280;15572;48.810;9.148;2023-11-21T12:46:14;97813.56;;;9.51;100.00
28312;BME280;15572;48.810;9.148;2023-11-21T12:51:13;97813.88;;;9.69;100.00
28312;BME280;15572;48.810;9.148;2023-11-21T12:56:11;97810.06;;;9.98;100.00
28312;BME280;15572;48.810;9.148;2023-11-21T13:01:08;97816.44;;;10.31;100.00
28312;BME280;15572;48.810;9.148;2023-11-21T13:06:07;97826.19;;;10.26;100.00
28312;BME280;15572;48.810;9.148;2023-11-21T13:11:05;97835.38;;;9.90;100.00
28312;BME280;15572;48.810;9.148;2023-11-21T13:16:03;97839.78;;;9.57;100.00
28312;BME280;15572;48.810;9.148;2023-11-21T13:21:02;97844.13;;;9.23;100.00
28312;BME280;15572;48.810;9.148;2023-11-21T13:26:00;97851.22;;;9.03;100.00
28312;BME280;15572;48.810;9.148;2023-11-21T13:31:01;97851.91;;;8.84;100.00
28312;BME280;15572;48.810;9.148;2023-11-21T13:36:05;97856.59;;;8.75;100.00
28312;BME280;15572;48.810;9.148;2023-11-21T13:41:03;97860.13;;;8.76;100.00
28312;BME280;15572;48.810;9.148;2023-11-21T13:46:04;97861.34;;;8.73;100.00
28312;BME280;15572;48.810;9.148;2023-11-21T13:51:08;97859.06;;;8.70;100.00
28312;BME280;15572;48.810;9.148;2023-11-21T13:56:12;97866.56;;;8.75;100.00
28312;BME280;15572;48.810;9.148;2023-11-21T14:01:15;97876.25;;;8.69;100.00
28312;BME280;15572;48.810;9.148;2023-11-21T14:06:30;97881.66;;;8.69;100.00
28312;BME280;15572;48.810;9.148;2023-11-21T14:11:29;97893.06;;;8.71;100.00
28312;BME280;15572;48.810;9.148;2023-11-21T14:16:27;97892.56;;;8.82;100.00
28312;BME280;15572;48.810;9.148;2023-11-21T14:21:24;97894.13;;;8.92;100.00
28312;BME280;15572;48.810;9.148;2023-11-21T14:26:21;97904.59;;;8.80;100.00
28312;BME280;15572;48.810;9.148;2023-11-21T14:31:19;97896.88;;;8.77;100.00
28312;BME280;15572;48.810;9.148;2023-11-21T14:36:17;97904.34;;;8.75;100.00
28312;BME280;15572;48.810;9.148;2023-11-21T14:41:13;97907.22;;;8.73;100.00
28312;BME280;15572;48.810;9.148;2023-11-21T14:46:10;97918.94;;;8.80;100.00
28312;BME280;15572;48.810;9.148;2023-11-21T14:51:11;97922.09;;;8.84;100.00
28312;BME280;15572;48.810;9.148;2023-11-21T14:56:27;97934.81;;;8.90;100.00
28312;BME280;15572;48.810;9.148;2023-11-21T15:01:26;97939.69;;;8.80;100.00
28312;BME280;15572;48.810;9.148;2023-11-21T15:06:39;97940.53;;;8.80;100.00
28312;BME280;15572;48.810;9.148;2023-11-21T15:11:39;97949.66;;;8.79;100.00
28312;BME280;15572;48.810;9.148;2023-11-21T15:16:36;97960.06;;;8.82;100.00
28312;BME280;15572;48.810;9.148;2023-11-21T15:21:35;97965.41;;;8.76;100.00
28312;BME280;15572;48.810;9.148;2023-11-21T15:26:32;97982.78;;;8.73;100.00
28312;BME280;15572;48.810;9.148;2023-11-21T15:31:30;97981.50;;;8.69;100.00
28312;BME280;15572;48.810;9.148;2023-11-21T15:36:26;97983.56;;;8.67;100.00
28312;BME280;15572;48.810;9.148;2023-11-21T15:41:23;97990.19;;;8.65;100.00
28312;BME280;15572;48.810;9.148;2023-11-21T15:46:19;97991.38;;;8.62;100.00
28312;BME280;15572;48.810;9.148;2023-11-21T15:51:17;97991.19;;;8.64;100.00
28312;BME280;15572;48.810;9.148;2023-11-21T15:56:14;98001.34;;;8.62;100.00
28312;BME280;15572;48.810;9.148;2023-11-21T16:01:10;98008.81;;;8.60;100.00
28312;BME280;15572;48.810;9.148;2023-11-21T16:06:08;98019.97;;;8.57;100.00
28312;BME280;15572;48.810;9.148;2023-11-21T16:11:08;98011.22;;;8.55;100.00
28312;BME280;15572;48.810;9.148;2023-11-21T16:16:05;98029.06;;;8.56;100.00
28312;BME280;15572;48.810;9.148;2023-11-21T16:21:01;98032.81;;;8.55;100.00
28312;BME280;15572;48.810;9.148;2023-11-21T16:25:57;98030.38;;;8.45;100.00
28312;BME280;15572;48.810;9.148;2023-11-21T16:30:55;98042.75;;;8.39;100.00
28312;BME280;15572;48.810;9.148;2023-11-21T16:35:52;98049.63;;;8.27;100.00
28312;BME280;15572;48.810;9.148;2023-11-21T16:40:48;98049.06;;;8.17;100.00
28312;BME280;15572;48.810;9.148;2023-11-21T16:45:46;98058.63;;;8.05;100.00
28312;BME280;15572;48.810;9.148;2023-11-21T16:50:48;98062.22;;;7.97;100.00
28312;BME280;15572;48.810;9.148;2023-11-21T16:55:45;98075.28;;;7.86;100.00
28312;BME280;15572;48.810;9.148;2023-11-21T17:00:41;98080.38;;;7.81;100.00
28312;BME280;15572;48.810;9.148;2023-11-21T17:05:37;98090.25;;;7.74;100.00
28312;BME280;15572;48.810;9.148;2023-11-21T17:10:35;98097.53;;;7.65;100.00
28312;BME280;15572;48.810;9.148;2023-11-21T17:15:32;98103.63;;;7.59;100.00
28312;BME280;15572;48.810;9.148;2023-11-21T17:20:28;98110.06;;;7.58;100.00
28312;BME280;15572;48.810;9.148;2023-11-21T17:25:25;98106.16;;;7.60;100.00
28312;BME280;15572;48.810;9.148;2023-11-21T17:30:22;98111.72;;;7.59;100.00
28312;BME280;15572;48.810;9.148;2023-11-21T17:35:19;98117.09;;;7.59;100.00
28312;BME280;15572;48.810;9.148;2023-11-21T17:40:16;98124.84;;;7.62;100.00
28312;BME280;15572;48.810;9.148;2023-11-21T17:45:12;98138.16;;;7.64;100.00
28312;BME280;15572;48.810;9.148;2023-11-21T17:50:11;98136.94;;;7.66;100.00
28312;BME280;15572;48.810;9.148;2023-11-21T17:55:08;98146.88;;;7.66;100.00
28312;BME280;15572;48.810;9.148;2023-11-21T18:00:05;98145.19;;;7.65;100.00
28312;BME280;15572;48.810;9.148;2023-11-21T18:05:04;98151.09;;;7.68;100.00
28312;BME280;15572;48.810;9.148;2023-11-21T18:10:08;98152.97;;;7.59;100.00
28312;BME280;15572;48.810;9.148;2023-11-21T18:15:06;98162.91;;;7.59;100.00
28312;BME280;15572;48.810;9.148;2023-11-21T18:20:03;98172.88;;;7.58;100.00
28312;BME280;15572;48.810;9.148;2023-11-21T18:25:00;98174.00;;;7.64;100.00
28312;BME280;15572;48.810;9.148;2023-11-21T18:29:59;98173.88;;;7.57;100.00
28312;BME280;15572;48.810;9.148;2023-11-21T18:34:55;98189.03;;;7.58;100.00
28312;BME280;15572;48.810;9.148;2023-11-21T18:39:52;98189.84;;;7.59;100.00
28312;BME280;15572;48.810;9.148;2023-11-21T18:44:49;98205.50;;;7.64;100.00
28312;BME280;15572;48.810;9.148;2023-11-21T18:49:47;98199.91;;;7.65;100.00
28312;BME280;15572;48.810;9.148;2023-11-21T18:54:43;98209.34;;;7.69;100.00
28312;BME280;15572;48.810;9.148;2023-11-21T18:59:40;98210.16;;;7.70;100.00
28312;BME280;15572;48.810;9.148;2023-11-21T19:04:38;98224.69;;;7.69;100.00
28312;BME280;15572;48.810;9.148;2023-11-21T19:09:35;98224.00;;;7.67;100.00
28312;BME280;15572;48.810;9.148;2023-11-21T19:14:32;98234.94;;;7.65;100.00
28312;BME280;15572;48.810;9.148;2023-11-21T19:19:29;98235.16;;;7.64;100.00
28312;BME280;15572;48.810;9.148;2023-11-21T19:24:25;98244.72;;;7.66;100.00
28312;BME280;15572;48.810;9.148;2023-11-21T19:29:25;98254.66;;;7.66;100.00
28312;BME280;15572;48.810;9.148;2023-11-21T19:34:21;98263.94;;;7.63;100.00
28312;BME280;15572;48.810;9.148;2023-11-21T19:39:17;98272.03;;;7.63;100.00
28312;BME280;15572;48.810;9.148;2023-11-21T19:44:14;98268.50;;;7.63;100.00
28312;BME280;15572;48.810;9.148;2023-11-21T19:49:12;98268.00;;;7.59;100.00
28312;BME280;15572;48.810;9.148;2023-11-21T19:54:09;98270.03;;;7.57;100.00
28312;BME280;15572;48.810;9.148;2023-11-21T19:59:05;98278.75;;;7.59;100.00
28312;BME280;15572;48.810;9.148;2023-11-21T20:04:02;98282.97;;;7.61;100.00
28312;BME280;15572;48.810;9.148;2023-11-21T20:08:59;98297.28;;;7.62;100.00
28312;BME280;15572;48.810;9.148;2023-11-21T20:13:59;98314.47;;;7.61;100.00
28312;BME280;15572;48.810;9.148;2023-11-21T20:18:55;98322.72;;;7.59;100.00
28312;BME280;15572;48.810;9.148;2023-11-21T20:23:52;98323.91;;;7.57;100.00
28312;BME280;15572;48.810;9.148;2023-11-21T20:28:51;98325.78;;;7.48;100.00
28312;BME280;15572;48.810;9.148;2023-11-21T20:33:48;98337.59;;;7.47;100.00
28312;BME280;15572;48.810;9.148;2023-11-21T20:38:44;98331.53;;;7.45;100.00
28312;BME280;15572;48.810;9.148;2023-11-21T20:43:41;98341.63;;;7.43;100.00
28312;BME280;15572;48.810;9.148;2023-11-21T20:48:39;98345.16;;;7.44;100.00
28312;BME280;15572;48.810;9.148;2023-11-21T20:53:35;98350.38;;;7.45;100.00
28312;BME280;15572;48.810;9.148;2023-11-21T20:58:32;98349.53;;;7.45;100.00
28312;BME280;15572;48.810;9.148;2023-11-21T21:03:28;98348.69;;;7.44;100.00
28312;BME280;15572;48.810;9.148;2023-11-21T21:08:26;98349.72;;;7.43;100.00
28312;BME280;15572;48.810;9.148;2023-11-21T21:13:23;98354.25;;;7.43;100.00
28312;BME280;15572;48.810;9.148;2023-11-21T21:18:19;98349.22;;;7.40;100.00
28312;BME280;15572;48.810;9.148;2023-11-21T21:23:16;98356.63;;;7.38;100.00
28312;BME280;15572;48.810;9.148;2023-11-21T21:28:14;98354.97;;;7.37;100.00
28312;BME280;15572;48.810;9.148;2023-11-21T21:33:11;98361.53;;;7.34;100.00
28312;BME280;15572;48.810;9.148;2023-11-21T21:38:07;98360.00;;;7.40;100.00
28312;BME280;15572;48.810;9.148;2023-11-21T21:43:04;98362.00;;;7.38;100.00
28312;BME280;15572;48.810;9.148;2023-11-21T21:48:02;98355.78;;;7.37;100.00
28312;BME280;15572;48.810;9.148;2023-11-21T21:52:59;98368.75;;;7.42;100.00
28312;BME280;15572;48.810;9.148;2023-11-21T21:57:56;98366.56;;;7.37;100.00
28312;BME280;15572;48.810;9.148;2023-11-21T22:02:53;98369.44;;;7.36;100.00
28312;BME280;15572;48.810;9.148;2023-11-21T22:07:52;98369.59;;;7.34;100.00
28312;BME280;15572;48.810;9.148;2023-11-21T22:12:48;98374.16;;;7.34;100.00
28312;BME280;15572;48.810;9.148;2023-11-21T22:17:45;98380.22;;;7.36;100.00
28312;BME280;15572;48.810;9.148;2023-11-21T22:22:42;98374.84;;;7.36;100.00
28312;BME280;15572;48.810;9.148;2023-11-21T22:27:39;98377.00;;;7.32;100.00
28312;BME280;15572;48.810;9.148;2023-11-21T22:32:36;98380.53;;;7.33;100.00
28312;BME280;15572;48.810;9.148;2023-11-21T22:37:32;98385.09;;;7.32;100.00
28312;BME280;15572;48.810;9.148;2023-11-21T22:42:28;98383.44;;;7.31;100.00
28312;BME280;15572;48.810;9.148;2023-11-21T22:47:26;98390.84;;;7.29;100.00
28312;BME280;15572;48.810;9.148;2023-11-21T22:52:23;98393.03;;;7.26;100.00
28312;BME280;15572;48.810;9.148;2023-11-21T22:57:19;98396.91;;;7.23;100.00
28312;BME280;15572;48.810;9.148;2023-11-21T23:02:16;98404.13;;;7.23;100.00
28312;BME280;15572;48.810;9.148;2023-11-21T23:07:13;98412.56;;;7.19;100.00
28312;BME280;15572;48.810;9.148;2023-11-21T23:12:10;98406.50;;;7.17;100.00
28312;BME280;15572;48.810;9.148;2023-11-21T23:17:06;98405.84;;;7.15;100.00
28312;BME280;15572;48.810;9.148;2023-11-21T23:22:03;98409.69;;;7.13;100.00
28312;BME280;15572;48.810;9.148;2023-11-21T23:27:01;98412.75;;;7.10;100.00
28312;BME280;15572;48.810;9.148;2023-11-21T23:31:58;98420.13;;;7.08;100.00
28312;BME280;15572;48.810;9.148;2023-11-21T23:36:55;98420.13;;;7.08;100.00
28312;BME280;15572;48.810;9.148;2023-11-21T23:41:51;98420.81;;;7.10;100.00
28312;BME280;15572;48.810;9.148;2023-11-21T23:46:49;98419.13;;;7.09;100.00
28312;BME280;15572;48.810;9.148;2023-11-21T23:51:45;98408.19;;;7.10;100.00
28312;BME280;15572;48.810;9.148;2023-11-21T23:56:42;98420.63;;;7.11;100.00
